sensor_id;sensor_type;location;lat;lon;timestamp;pressure;altitude;pressure_sealevel;temperature;humidity
39949;BME280;29070;48.102;-1.652;2023-05-15T00:01:13;101715.94;;;13.41;68.56
39949;BME280;29070;48.102;-1.652;2023-05-15T00:06:13;101716.31;;;13.38;68.63
39949;BME280;29070;48.102;-1.652;2023-05-15T00:11:13;101717.50;;;13.35;68.82
39949;BME280;29070;48.102;-1.652;2023-05-15T00:16:14;101717.94;;;13.39;68.93
39949;BME280;29070;48.102;-1.652;2023-05-15T00:21:14;101710.03;;;13.39;69.06
39949;BME280;29070;48.102;-1.652;2023-05-15T00:26:16;101705.19;;;13.42;69.24
39949;BME280;29070;48.102;-1.652;2023-05-15T00:31:16;101694.84;;;13.41;69.23
39949;BME280;29070;48.102;-1.652;2023-05-15T00:36:17;101689.19;;;13.44;69.43
39949;BME280;29070;48.102;-1.652;2023-05-15T00:41:17;101685.94;;;13.42;69.63
39949;BME280;29070;48.102;-1.652;2023-05-15T00:46:19;101690.19;;;13.43;69.59
39949;BME280;29070;48.102;-1.652;2023-05-15T00:51:20;101679.63;;;13.43;69.75
39949;BME280;29070;48.102;-1.652;2023-05-15T00:56:20;101670.13;;;13.42;69.89
39949;BME280;29070;48.102;-1.652;2023-05-15T01:01:20;101674.09;;;13.38;70.03
39949;BME280;29070;48.102;-1.652;2023-05-15T01:06:21;101676.63;;;13.24;70.49
39949;BME280;29070;48.102;-1.652;2023-05-15T01:11:24;101666.69;;;13.26;70.63
39949;BME280;29070;48.102;-1.652;2023-05-15T01:16:26;101672.25;;;13.31;70.67
39949;BME280;29070;48.102;-1.652;2023-05-15T01:32:06;101653.84;;;13.38;71.29
39949;BME280;29070;48.102;-1.652;2023-05-15T01:37:10;101645.69;;;13.33;71.45
39949;BME280;29070;48.102;-1.652;2023-05-15T01:42:14;101636.19;;;13.39;71.48
39949;BME280;29070;48.102;-1.652;2023-05-15T01:47:20;101635.34;;;13.31;71.64
39949;BME280;29070;48.102;-1.652;2023-05-15T01:52:33;101636.13;;;13.32;71.88
39949;BME280;29070;48.102;-1.652;2023-05-15T01:57:35;101619.03;;;13.28;71.86
39949;BME280;29070;48.102;-1.652;2023-05-15T02:02:36;101623.31;;;13.29;71.90
39949;BME280;29070;48.102;-1.652;2023-05-15T02:07:37;101621.69;;;13.28;72.19
39949;BME280;29070;48.102;-1.652;2023-05-15T02:12:39;101628.47;;;13.15;72.38
39949;BME280;29070;48.102;-1.652;2023-05-15T02:17:40;101624.00;;;13.16;72.42
39949;BME280;29070;48.102;-1.652;2023-05-15T02:22:41;101622.91;;;13.25;72.57
39949;BME280;29070;48.102;-1.652;2023-05-15T02:27:55;101620.25;;;13.25;72.70
39949;BME280;29070;48.102;-1.652;2023-05-15T02:33:18;101635.75;;;13.13;72.72
39949;BME280;29070;48.102;-1.652;2023-05-15T02:38:37;101632.88;;;13.08;72.72
39949;BME280;29070;48.102;-1.652;2023-05-15T02:43:41;101635.31;;;13.10;72.83
39949;BME280;29070;48.102;-1.652;2023-05-15T02:48:42;101629.88;;;13.11;72.87
39949;BME280;29070;48.102;-1.652;2023-05-15T02:53:43;101636.94;;;13.11;72.97
39949;BME280;29070;48.102;-1.652;2023-05-15T02:58:43;101630.31;;;13.15;73.00
39949;BME280;29070;48.102;-1.652;2023-05-15T03:03:46;101619.75;;;13.15;73.16
39949;BME280;29070;48.102;-1.652;2023-05-15T03:08:46;101619.38;;;13.18;73.13
39949;BME280;29070;48.102;-1.652;2023-05-15T03:13:46;101618.28;;;13.12;73.22
39949;BME280;29070;48.102;-1.652;2023-05-15T03:18:47;101625.06;;;13.00;73.33
39949;BME280;29070;48.102;-1.652;2023-05-15T03:23:47;101624.28;;;13.00;73.42
39949;BME280;29070;48.102;-1.652;2023-05-15T03:28:48;101615.75;;;12.97;73.50
39949;BME280;29070;48.102;-1.652;2023-05-15T03:33:48;101611.69;;;12.95;73.65
39949;BME280;29070;48.102;-1.652;2023-05-15T03:38:50;101611.59;;;12.88;73.74
39949;BME280;29070;48.102;-1.652;2023-05-15T03:43:50;101602.31;;;12.92;73.88
39949;BME280;29070;48.102;-1.652;2023-05-15T03:48:51;101605.53;;;12.88;74.13
39949;BME280;29070;48.102;-1.652;2023-05-15T03:53:53;101597.56;;;12.81;74.27
39949;BME280;29070;48.102;-1.652;2023-05-15T03:58:54;101593.47;;;12.78;74.28
39949;BME280;29070;48.102;-1.652;2023-05-15T04:03:54;101595.28;;;12.78;74.41
39949;BME280;29070;48.102;-1.652;2023-05-15T04:08:54;101592.66;;;12.78;74.48
39949;BME280;29070;48.102;-1.652;2023-05-15T04:13:55;101588.41;;;12.77;74.50
39949;BME280;29070;48.102;-1.652;2023-05-15T04:18:55;101590.00;;;12.78;74.45
39949;BME280;29070;48.102;-1.652;2023-05-15T04:23:55;101584.75;;;12.78;74.67
39949;BME280;29070;48.102;-1.652;2023-05-15T04:28:56;101591.66;;;12.79;74.46
39949;BME280;29070;48.102;-1.652;2023-05-15T04:33:56;101594.66;;;12.76;74.60
39949;BME280;29070;48.102;-1.652;2023-05-15T04:38:56;101586.25;;;12.66;74.84
39949;BME280;29070;48.102;-1.652;2023-05-15T04:43:57;101578.75;;;12.63;74.92
39949;BME280;29070;48.102;-1.652;2023-05-15T04:48:57;101583.78;;;12.64;75.06
39949;BME280;29070;48.102;-1.652;2023-05-15T04:53:57;101576.91;;;12.63;74.97
39949;BME280;29070;48.102;-1.652;2023-05-15T04:58:58;101579.09;;;12.59;75.35
39949;BME280;29070;48.102;-1.652;2023-05-15T05:03:58;101584.44;;;12.66;75.38
39949;BME280;29070;48.102;-1.652;2023-05-15T05:08:59;101585.13;;;12.75;75.46
39949;BME280;29070;48.102;-1.652;2023-05-15T05:13:59;101589.22;;;12.77;75.46
39949;BME280;29070;48.102;-1.652;2023-05-15T05:19:00;101583.50;;;12.74;75.75
39949;BME280;29070;48.102;-1.652;2023-05-15T05:24:00;101591.25;;;12.82;75.65
39949;BME280;29070;48.102;-1.652;2023-05-15T05:29:00;101597.47;;;12.96;75.92
39949;BME280;29070;48.102;-1.652;2023-05-15T05:34:01;101592.22;;;12.96;75.75
39949;BME280;29070;48.102;-1.652;2023-05-15T05:39:01;101594.13;;;13.09;75.57
39949;BME280;29070;48.102;-1.652;2023-05-15T05:44:03;101596.59;;;13.10;75.59
39949;BME280;29070;48.102;-1.652;2023-05-15T05:49:04;101597.28;;;13.19;75.60
39949;BME280;29070;48.102;-1.652;2023-05-15T05:54:04;101592.88;;;13.26;75.72
39949;BME280;29070;48.102;-1.652;2023-05-15T05:59:05;101601.88;;;13.32;75.61
39949;BME280;29070;48.102;-1.652;2023-05-15T06:04:05;101605.69;;;13.29;75.70
39949;BME280;29070;48.102;-1.652;2023-05-15T06:09:05;101606.13;;;13.33;75.65
39949;BME280;29070;48.102;-1.652;2023-05-15T06:14:06;101607.44;;;13.22;75.51
39949;BME280;29070;48.102;-1.652;2023-05-15T06:19:07;101613.16;;;13.26;75.55
39949;BME280;29070;48.102;-1.652;2023-05-15T06:24:07;101608.31;;;13.29;75.56
39949;BME280;29070;48.102;-1.652;2023-05-15T06:29:08;101613.34;;;13.46;75.60
39949;BME280;29070;48.102;-1.652;2023-05-15T06:34:08;101604.50;;;13.60;75.66
39949;BME280;29070;48.102;-1.652;2023-05-15T06:39:08;101607.38;;;13.65;75.66
39949;BME280;29070;48.102;-1.652;2023-05-15T06:44:14;101605.16;;;13.69;75.56
39949;BME280;29070;48.102;-1.652;2023-05-15T06:49:15;101605.59;;;13.72;75.50
39949;BME280;29070;48.102;-1.652;2023-05-15T06:54:16;101592.47;;;13.86;75.54
39949;BME280;29070;48.102;-1.652;2023-05-15T06:59:16;101592.53;;;13.99;75.66
39949;BME280;29070;48.102;-1.652;2023-05-15T07:04:18;101581.63;;;14.09;75.56
39949;BME280;29070;48.102;-1.652;2023-05-15T07:09:22;101595.25;;;14.19;75.42
39949;BME280;29070;48.102;-1.652;2023-05-15T07:14:23;101593.66;;;14.25;75.42
39949;BME280;29070;48.102;-1.652;2023-05-15T07:19:23;101604.00;;;14.20;75.78
39949;BME280;29070;48.102;-1.652;2023-05-15T07:24:24;101593.44;;;14.20;75.52
39949;BME280;29070;48.102;-1.652;2023-05-15T07:29:25;101586.56;;;14.25;75.45
39949;BME280;29070;48.102;-1.652;2023-05-15T07:34:27;101575.78;;;14.27;75.72
39949;BME280;29070;48.102;-1.652;2023-05-15T07:39:29;101575.81;;;14.34;75.80
39949;BME280;29070;48.102;-1.652;2023-05-15T07:44:29;101581.13;;;14.40;76.01
39949;BME280;29070;48.102;-1.652;2023-05-15T07:49:32;101583.16;;;14.45;75.88
39949;BME280;29070;48.102;-1.652;2023-05-15T07:54:36;101589.06;;;14.54;76.00
39949;BME280;29070;48.102;-1.652;2023-05-15T07:59:38;101594.97;;;14.56;75.91
39949;BME280;29070;48.102;-1.652;2023-05-15T08:04:38;101593.97;;;14.57;75.99
39949;BME280;29070;48.102;-1.652;2023-05-15T08:09:39;101598.84;;;14.53;75.81
39949;BME280;29070;48.102;-1.652;2023-05-15T08:14:42;101592.56;;;14.61;76.30
39949;BME280;29070;48.102;-1.652;2023-05-15T08:19:47;101589.94;;;14.67;76.20
39949;BME280;29070;48.102;-1.652;2023-05-15T08:24:49;101594.00;;;14.63;76.32
39949;BME280;29070;48.102;-1.652;2023-05-15T08:29:49;101581.81;;;14.62;76.45
39949;BME280;29070;48.102;-1.652;2023-05-15T08:34:50;101580.38;;;14.66;76.61
39949;BME280;29070;48.102;-1.652;2023-05-15T08:39:50;101583.84;;;14.60;76.64
39949;BME280;29070;48.102;-1.652;2023-05-15T08:44:51;101581.00;;;14.62;76.77
39949;BME280;29070;48.102;-1.652;2023-05-15T08:49:57;101586.84;;;14.51;77.00
39949;BME280;29070;48.102;-1.652;2023-05-15T08:55:05;101569.16;;;14.51;77.00
39949;BME280;29070;48.102;-1.652;2023-05-15T09:00:07;101573.22;;;14.54;76.75
39949;BME280;29070;48.102;-1.652;2023-05-15T09:05:08;101574.72;;;14.70;77.01
39949;BME280;29070;48.102;-1.652;2023-05-15T09:10:13;101578.78;;;14.79;77.13
39949;BME280;29070;48.102;-1.652;2023-05-15T09:15:18;101575.72;;;14.75;77.25
39949;BME280;29070;48.102;-1.652;2023-05-15T09:20:35;101579.00;;;14.84;77.41
39949;BME280;29070;48.102;-1.652;2023-05-15T09:25:43;101574.31;;;14.93;77.52
39949;BME280;29070;48.102;-1.652;2023-05-15T09:30:49;101579.41;;;15.07;77.52
39949;BME280;29070;48.102;-1.652;2023-05-15T09:35:53;101572.88;;;15.23;77.50
39949;BME280;29070;48.102;-1.652;2023-05-15T09:41:04;101569.22;;;15.38;77.57
39949;BME280;29070;48.102;-1.652;2023-05-15T09:46:08;101568.81;;;15.41;77.49
39949;BME280;29070;48.102;-1.652;2023-05-15T09:51:18;101578.97;;;15.51;77.35
39949;BME280;29070;48.102;-1.652;2023-05-15T09:56:21;101580.22;;;15.35;77.01
39949;BME280;29070;48.102;-1.652;2023-05-15T10:01:25;101578.78;;;15.46;76.99
39949;BME280;29070;48.102;-1.652;2023-05-15T10:06:39;101577.94;;;15.45;76.83
39949;BME280;29070;48.102;-1.652;2023-05-15T10:11:46;101579.59;;;15.46;76.99
39949;BME280;29070;48.102;-1.652;2023-05-15T10:16:55;101570.81;;;15.52;76.89
39949;BME280;29070;48.102;-1.652;2023-05-15T10:21:57;101571.84;;;15.58;77.12
39949;BME280;29070;48.102;-1.652;2023-05-15T10:26:59;101568.97;;;15.59;77.29
39949;BME280;29070;48.102;-1.652;2023-05-15T10:32:00;101577.75;;;15.53;77.26
39949;BME280;29070;48.102;-1.652;2023-05-15T10:37:01;101585.09;;;15.38;77.42
39949;BME280;29070;48.102;-1.652;2023-05-15T10:42:03;101592.81;;;15.46;77.50
39949;BME280;29070;48.102;-1.652;2023-05-15T10:47:04;101580.00;;;15.56;77.67
39949;BME280;29070;48.102;-1.652;2023-05-15T10:52:05;101579.78;;;15.58;77.75
39949;BME280;29070;48.102;-1.652;2023-05-15T10:57:05;101587.53;;;15.39;77.51
39949;BME280;29070;48.102;-1.652;2023-05-15T11:02:25;101590.59;;;15.36;77.93
39949;BME280;29070;48.102;-1.652;2023-05-15T11:07:26;101596.47;;;15.45;77.57
39949;BME280;29070;48.102;-1.652;2023-05-15T11:12:55;101602.59;;;15.32;77.49
39949;BME280;29070;48.102;-1.652;2023-05-15T11:18:06;101609.09;;;15.23;77.83
39949;BME280;29070;48.102;-1.652;2023-05-15T11:23:07;101620.09;;;15.20;77.88
39949;BME280;29070;48.102;-1.652;2023-05-15T11:28:20;101621.94;;;15.26;78.37
39949;BME280;29070;48.102;-1.652;2023-05-15T11:33:20;101626.00;;;15.29;78.00
39949;BME280;29070;48.102;-1.652;2023-05-15T11:38:22;101630.06;;;15.38;78.08
39949;BME280;29070;48.102;-1.652;2023-05-15T11:43:35;101631.09;;;15.37;77.99
39949;BME280;29070;48.102;-1.652;2023-05-15T11:48:41;101626.59;;;15.37;77.78
39949;BME280;29070;48.102;-1.652;2023-05-15T11:53:42;101638.63;;;15.33;77.50
39949;BME280;29070;48.102;-1.652;2023-05-15T11:58:42;101638.00;;;15.38;77.78
39949;BME280;29070;48.102;-1.652;2023-05-15T12:03:46;101635.34;;;15.44;77.65
39949;BME280;29070;48.102;-1.652;2023-05-15T12:08:51;101644.53;;;15.42;77.32
39949;BME280;29070;48.102;-1.652;2023-05-15T12:13:52;101650.41;;;15.31;77.13
39949;BME280;29070;48.102;-1.652;2023-05-15T12:18:53;101651.84;;;15.27;77.04
39949;BME280;29070;48.102;-1.652;2023-05-15T12:23:55;101650.19;;;15.12;77.23
39949;BME280;29070;48.102;-1.652;2023-05-15T12:28:56;101655.47;;;15.05;77.05
39949;BME280;29070;48.102;-1.652;2023-05-15T12:33:56;101657.09;;;14.86;76.88
39949;BME280;29070;48.102;-1.652;2023-05-15T12:38:57;101654.22;;;14.81;76.86
39949;BME280;29070;48.102;-1.652;2023-05-15T12:43:58;101657.88;;;14.74;76.75
39949;BME280;29070;48.102;-1.652;2023-05-15T12:48:58;101664.41;;;14.84;76.84
39949;BME280;29070;48.102;-1.652;2023-05-15T12:53:59;101672.94;;;14.86;76.88
39949;BME280;29070;48.102;-1.652;2023-05-15T12:58:59;101675.16;;;14.90;76.68
39949;BME280;29070;48.102;-1.652;2023-05-15T13:04:00;101680.91;;;15.06;76.63
39949;BME280;29070;48.102;-1.652;2023-05-15T13:09:01;101677.84;;;15.16;76.41
39949;BME280;29070;48.102;-1.652;2023-05-15T13:14:07;101677.06;;;15.36;76.53
39949;BME280;29070;48.102;-1.652;2023-05-15T13:19:08;101681.53;;;15.49;76.00
39949;BME280;29070;48.102;-1.652;2023-05-15T13:24:08;101683.59;;;15.40;75.79
39949;BME280;29070;48.102;-1.652;2023-05-15T13:29:09;101686.41;;;15.45;75.44
39949;BME280;29070;48.102;-1.652;2023-05-15T13:34:10;101694.19;;;15.40;75.19
39949;BME280;29070;48.102;-1.652;2023-05-15T13:39:10;101689.06;;;15.25;74.92
39949;BME280;29070;48.102;-1.652;2023-05-15T13:44:10;101707.56;;;15.25;75.18
39949;BME280;29070;48.102;-1.652;2023-05-15T13:49:11;101713.66;;;15.12;74.72
39949;BME280;29070;48.102;-1.652;2023-05-15T13:54:11;101711.19;;;15.04;74.17
39949;BME280;29070;48.102;-1.652;2023-05-15T13:59:11;101725.41;;;14.96;74.49
39949;BME280;29070;48.102;-1.652;2023-05-15T14:04:12;101720.75;;;14.92;74.49
39949;BME280;29070;48.102;-1.652;2023-05-15T14:09:12;101736.19;;;14.95;74.46
39949;BME280;29070;48.102;-1.652;2023-05-15T14:14:13;101731.09;;;14.86;74.12
39949;BME280;29070;48.102;-1.652;2023-05-15T14:19:14;101723.78;;;14.89;74.30
39949;BME280;29070;48.102;-1.652;2023-05-15T14:24:14;101730.25;;;14.79;74.21
39949;BME280;29070;48.102;-1.652;2023-05-15T14:29:14;101731.25;;;14.78;74.29
39949;BME280;29070;48.102;-1.652;2023-05-15T14:34:15;101721.38;;;15.07;74.43
39949;BME280;29070;48.102;-1.652;2023-05-15T14:39:16;101721.78;;;15.04;73.93
39949;BME280;29070;48.102;-1.652;2023-05-15T14:44:17;101731.53;;;15.03;73.74
39949;BME280;29070;48.102;-1.652;2023-05-15T14:49:18;101734.53;;;14.80;73.24
39949;BME280;29070;48.102;-1.652;2023-05-15T14:54:18;101738.56;;;14.76;73.44
39949;BME280;29070;48.102;-1.652;2023-05-15T14:59:19;101748.75;;;14.86;73.42
39949;BME280;29070;48.102;-1.652;2023-05-15T15:04:19;101745.75;;;14.96;73.21
39949;BME280;29070;48.102;-1.652;2023-05-15T15:09:19;101743.75;;;15.11;72.71
39949;BME280;29070;48.102;-1.652;2023-05-15T15:14:20;101741.94;;;15.18;72.58
39949;BME280;29070;48.102;-1.652;2023-05-15T15:19:20;101745.63;;;15.31;72.17
39949;BME280;29070;48.102;-1.652;2023-05-15T15:24:20;101748.09;;;15.52;72.24
39949;BME280;29070;48.102;-1.652;2023-05-15T15:29:21;101747.50;;;15.63;71.69
39949;BME280;29070;48.102;-1.652;2023-05-15T15:34:21;101747.91;;;15.67;71.28
39949;BME280;29070;48.102;-1.652;2023-05-15T15:39:21;101756.06;;;15.59;70.31
39949;BME280;29070;48.102;-1.652;2023-05-15T15:44:22;101753.19;;;15.60;70.33
39949;BME280;29070;48.102;-1.652;2023-05-15T15:49:23;101750.38;;;15.75;69.86
39949;BME280;29070;48.102;-1.652;2023-05-15T15:54:23;101758.50;;;16.07;69.28
39949;BME280;29070;48.102;-1.652;2023-05-15T15:59:24;101763.81;;;16.07;68.83
39949;BME280;29070;48.102;-1.652;2023-05-15T16:04:24;101769.53;;;15.97;67.96
39949;BME280;29070;48.102;-1.652;2023-05-15T16:09:24;101762.19;;;15.99;67.51
39949;BME280;29070;48.102;-1.652;2023-05-15T16:14:25;101765.63;;;16.27;67.83
39949;BME280;29070;48.102;-1.652;2023-05-15T16:19:26;101766.63;;;16.26;67.00
39949;BME280;29070;48.102;-1.652;2023-05-15T16:24:27;101771.53;;;16.22;66.48
39949;BME280;29070;48.102;-1.652;2023-05-15T16:29:28;101761.75;;;16.09;65.81
39949;BME280;29070;48.102;-1.652;2023-05-15T16:34:28;101772.75;;;16.19;65.43
39949;BME280;29070;48.102;-1.652;2023-05-15T16:39:29;101764.81;;;16.19;64.90
39949;BME280;29070;48.102;-1.652;2023-05-15T16:44:31;101761.97;;;16.21;64.61
39949;BME280;29070;48.102;-1.652;2023-05-15T16:49:32;101766.47;;;16.07;63.39
39949;BME280;29070;48.102;-1.652;2023-05-15T16:54:32;101767.09;;;16.03;63.72
39949;BME280;29070;48.102;-1.652;2023-05-15T16:59:33;101779.13;;;15.92;63.17
39949;BME280;29070;48.102;-1.652;2023-05-15T17:04:33;101771.13;;;15.72;63.02
39949;BME280;29070;48.102;-1.652;2023-05-15T17:09:34;101771.31;;;15.50;62.56
39949;BME280;29070;48.102;-1.652;2023-05-15T17:14:34;101769.09;;;15.47;62.72
39949;BME280;29070;48.102;-1.652;2023-05-15T17:19:35;101764.19;;;15.44;62.55
39949;BME280;29070;48.102;-1.652;2023-05-15T17:24:36;101767.84;;;15.43;62.01
39949;BME280;29070;48.102;-1.652;2023-05-15T17:29:36;101784.09;;;15.33;61.76
39949;BME280;29070;48.102;-1.652;2023-05-15T17:34:37;101795.66;;;15.19;61.52
39949;BME280;29070;48.102;-1.652;2023-05-15T17:39:37;101797.47;;;15.18;61.39
39949;BME280;29070;48.102;-1.652;2023-05-15T17:44:38;101801.16;;;15.17;61.29
39949;BME280;29070;48.102;-1.652;2023-05-15T17:49:38;101813.75;;;15.22;61.11
39949;BME280;29070;48.102;-1.652;2023-05-15T17:54:39;101809.66;;;15.13;60.74
39949;BME280;29070;48.102;-1.652;2023-05-15T17:59:39;101819.22;;;15.07;60.42
39949;BME280;29070;48.102;-1.652;2023-05-15T18:04:39;101815.53;;;15.01;60.28
39949;BME280;29070;48.102;-1.652;2023-05-15T18:09:40;101832.41;;;14.94;60.02
39949;BME280;29070;48.102;-1.652;2023-05-15T18:14:41;101830.09;;;14.84;60.04
39949;BME280;29070;48.102;-1.652;2023-05-15T18:19:42;101832.31;;;14.74;59.98
39949;BME280;29070;48.102;-1.652;2023-05-15T18:24:43;101851.19;;;14.71;59.92
39949;BME280;29070;48.102;-1.652;2023-05-15T18:29:44;101851.50;;;14.61;60.00
39949;BME280;29070;48.102;-1.652;2023-05-15T18:34:44;101846.31;;;14.46;59.68
39949;BME280;29070;48.102;-1.652;2023-05-15T18:39:46;101853.56;;;14.37;59.52
39949;BME280;29070;48.102;-1.652;2023-05-15T18:44:47;101859.56;;;14.24;59.70
39949;BME280;29070;48.102;-1.652;2023-05-15T18:49:47;101872.09;;;14.16;59.87
39949;BME280;29070;48.102;-1.652;2023-05-15T18:54:47;101869.56;;;14.07;59.74
39949;BME280;29070;48.102;-1.652;2023-05-15T18:59:48;101881.88;;;14.00;59.86
39949;BME280;29070;48.102;-1.652;2023-05-15T19:04:48;101888.69;;;13.88;59.64
39949;BME280;29070;48.102;-1.652;2023-05-15T19:09:48;101886.53;;;13.77;59.87
39949;BME280;29070;48.102;-1.652;2023-05-15T19:14:49;101901.03;;;13.66;59.85
39949;BME280;29070;48.102;-1.652;2023-05-15T19:19:49;101902.69;;;13.52;60.18
39949;BME280;29070;48.102;-1.652;2023-05-15T19:24:52;101910.59;;;13.52;60.29
39949;BME280;29070;48.102;-1.652;2023-05-15T19:29:52;101918.28;;;13.47;60.60
39949;BME280;29070;48.102;-1.652;2023-05-15T19:34:53;101922.25;;;13.43;60.43
39949;BME280;29070;48.102;-1.652;2023-05-15T19:39:53;101928.16;;;13.30;60.54
39949;BME280;29070;48.102;-1.652;2023-05-15T19:44:54;101925.81;;;13.20;60.35
39949;BME280;29070;48.102;-1.652;2023-05-15T19:49:54;101927.72;;;13.11;60.89
39949;BME280;29070;48.102;-1.652;2023-05-15T19:54:55;101937.72;;;13.01;60.98
39949;BME280;29070;48.102;-1.652;2023-05-15T19:59:55;101941.44;;;12.92;61.19
39949;BME280;29070;48.102;-1.652;2023-05-15T20:04:55;101944.31;;;12.82;61.32
39949;BME280;29070;48.102;-1.652;2023-05-15T20:09:55;101955.94;;;12.73;61.56
39949;BME280;29070;48.102;-1.652;2023-05-15T20:14:56;101955.38;;;12.63;61.84
39949;BME280;29070;48.102;-1.652;2023-05-15T20:19:56;101956.06;;;12.56;62.16
39949;BME280;29070;48.102;-1.652;2023-05-15T20:24:58;101959.13;;;12.45;62.20
39949;BME280;29070;48.102;-1.652;2023-05-15T20:29:59;101961.00;;;12.36;62.57
39949;BME280;29070;48.102;-1.652;2023-05-15T20:35:00;101973.41;;;12.28;62.69
39949;BME280;29070;48.102;-1.652;2023-05-15T20:40:01;101977.75;;;12.20;62.96
39949;BME280;29070;48.102;-1.652;2023-05-15T20:45:01;101974.50;;;12.10;63.19
39949;BME280;29070;48.102;-1.652;2023-05-15T20:50:04;101980.16;;;11.99;63.51
39949;BME280;29070;48.102;-1.652;2023-05-15T20:55:14;101977.22;;;11.94;63.85
39949;BME280;29070;48.102;-1.652;2023-05-15T21:00:16;101986.44;;;11.90;63.90
39949;BME280;29070;48.102;-1.652;2023-05-15T21:05:16;101994.19;;;11.83;63.94
39949;BME280;29070;48.102;-1.652;2023-05-15T21:10:17;101990.94;;;11.73;64.12
39949;BME280;29070;48.102;-1.652;2023-05-15T21:15:18;101994.09;;;11.68;64.41
39949;BME280;29070;48.102;-1.652;2023-05-15T21:20:18;101998.41;;;11.61;64.57
39949;BME280;29070;48.102;-1.652;2023-05-15T21:25:18;102005.97;;;11.56;64.75
39949;BME280;29070;48.102;-1.652;2023-05-15T21:30:19;102009.91;;;11.52;64.96
39949;BME280;29070;48.102;-1.652;2023-05-15T21:35:19;102002.88;;;11.44;65.05
39949;BME280;29070;48.102;-1.652;2023-05-15T21:40:20;102011.63;;;11.36;65.21
39949;BME280;29070;48.102;-1.652;2023-05-15T21:45:20;102011.94;;;11.33;65.54
39949;BME280;29070;48.102;-1.652;2023-05-15T21:50:20;102010.81;;;11.28;65.80
39949;BME280;29070;48.102;-1.652;2023-05-15T21:55:21;102024.63;;;11.21;65.89
39949;BME280;29070;48.102;-1.652;2023-05-15T22:00:21;102010.31;;;11.16;66.09
39949;BME280;29070;48.102;-1.652;2023-05-15T22:05:21;102011.66;;;11.12;66.28
39949;BME280;29070;48.102;-1.652;2023-05-15T22:10:22;102011.97;;;11.09;66.42
39949;BME280;29070;48.102;-1.652;2023-05-15T22:15:22;102017.25;;;11.00;66.44
39949;BME280;29070;48.102;-1.652;2023-05-15T22:20:22;102016.94;;;10.95;66.67
39949;BME280;29070;48.102;-1.652;2023-05-15T22:25:23;102023.84;;;10.88;66.74
39949;BME280;29070;48.102;-1.652;2023-05-15T22:30:24;102026.13;;;10.83;67.05
39949;BME280;29070;48.102;-1.652;2023-05-15T22:35:24;102035.31;;;10.79;67.17
39949;BME280;29070;48.102;-1.652;2023-05-15T22:40:24;102032.38;;;10.74;67.26
39949;BME280;29070;48.102;-1.652;2023-05-15T22:45:25;102038.25;;;10.67;67.15
39949;BME280;29070;48.102;-1.652;2023-05-15T22:50:25;102037.25;;;10.60;67.34
39949;BME280;29070;48.102;-1.652;2023-05-15T22:55:25;102037.59;;;10.57;67.58
39949;BME280;29070;48.102;-1.652;2023-05-15T23:00:27;102035.31;;;10.54;67.60
39949;BME280;29070;48.102;-1.652;2023-05-15T23:05:27;102043.66;;;10.49;67.61
39949;BME280;29070;48.102;-1.652;2023-05-15T23:10:28;102049.72;;;10.42;67.92
39949;BME280;29070;48.102;-1.652;2023-05-15T23:15:28;102060.38;;;10.40;68.18
39949;BME280;29070;48.102;-1.652;2023-05-15T23:20:29;102054.63;;;10.37;68.21
39949;BME280;29070;48.102;-1.652;2023-05-15T23:25:29;102053.97;;;10.35;68.33
39949;BME280;29070;48.102;-1.652;2023-05-15T23:30:30;102054.28;;;10.32;68.55
39949;BME280;29070;48.102;-1.652;2023-05-15T23:35:30;102062.09;;;10.23;68.60
39949;BME280;29070;48.102;-1.652;2023-05-15T23:40:30;102061.09;;;10.16;68.73
39949;BME280;29070;48.102;-1.652;2023-05-15T23:45:31;102067.97;;;10.17;68.89
39949;BME280;29070;48.102;-1.652;2023-05-15T23:50:31;102069.44;;;10.11;69.21
39949;BME280;29070;48.102;-1.652;2023-05-15T23:55:31;102066.47;;;10.06;69.39
